sensor_id;sensor_type;location;lat;lon;timestamp;pressure;altitude;pressure_sealevel;temperature;humidity
75668;BME280;64266;48.798;44.756;2023-08-24T00:03:35;100895.63;;;21.30;55.01
75668;BME280;64266;48.798;44.756;2023-08-24T00:08:38;100902.41;;;21.28;55.03
75668;BME280;64266;48.798;44.756;2023-08-24T00:13:44;100910.00;;;21.21;55.16
75668;BME280;64266;48.798;44.756;2023-08-24T00:18:53;100911.09;;;21.20;54.88
75668;BME280;64266;48.798;44.756;2023-08-24T00:23:56;100918.16;;;21.16;55.65
75668;BME280;64266;48.798;44.756;2023-08-24T00:29:00;100909.84;;;21.07;56.00
75668;BME280;64266;48.798;44.756;2023-08-24T00:34:02;100917.41;;;21.05;55.47
75668;BME280;64266;48.798;44.756;2023-08-24T00:39:06;100930.31;;;21.08;55.26
75668;BME280;64266;48.798;44.756;2023-08-24T00:44:11;100925.28;;;20.96;55.70
75668;BME280;64266;48.798;44.756;2023-08-24T00:49:14;100928.56;;;20.93;55.93
75668;BME280;64266;48.798;44.756;2023-08-24T00:54:18;100930.50;;;20.88;56.57
75668;BME280;64266;48.798;44.756;2023-08-24T00:59:21;100915.25;;;20.73;56.07
75668;BME280;64266;48.798;44.756;2023-08-24T01:04:25;100923.03;;;20.75;56.27
75668;BME280;64266;48.798;44.756;2023-08-24T01:09:30;100920.66;;;20.68;56.53
75668;BME280;64266;48.798;44.756;2023-08-24T01:15:02;100936.25;;;20.71;57.23
75668;BME280;64266;48.798;44.756;2023-08-24T01:20:07;100934.47;;;20.57;57.08
75668;BME280;64266;48.798;44.756;2023-08-24T01:25:32;100938.53;;;20.49;57.69
75668;BME280;64266;48.798;44.756;2023-08-24T01:30:38;100936.19;;;20.37;57.45
75668;BME280;64266;48.798;44.756;2023-08-24T01:35:41;100955.09;;;20.32;58.13
75668;BME280;64266;48.798;44.756;2023-08-24T01:46:13;100973.38;;;20.30;58.46
75668;BME280;64266;48.798;44.756;2023-08-24T01:51:18;100964.25;;;20.21;58.73
75668;BME280;64266;48.798;44.756;2023-08-24T01:56:22;100955.94;;;20.13;58.71
75668;BME280;64266;48.798;44.756;2023-08-24T02:01:25;100967.81;;;20.12;58.89
75668;BME280;64266;48.798;44.756;2023-08-24T02:06:28;100970.78;;;20.05;59.35
75668;BME280;64266;48.798;44.756;2023-08-24T02:11:31;100964.59;;;19.99;59.35
75668;BME280;64266;48.798;44.756;2023-08-24T02:16:36;100977.00;;;19.95;59.38
75668;BME280;64266;48.798;44.756;2023-08-24T02:21:40;100980.50;;;19.91;59.53
75668;BME280;64266;48.798;44.756;2023-08-24T02:26:42;100970.31;;;19.83;59.94
75668;BME280;64266;48.798;44.756;2023-08-24T02:31:45;100967.34;;;19.79;60.55
75668;BME280;64266;48.798;44.756;2023-08-24T02:36:49;100975.97;;;19.76;61.14
75668;BME280;64266;48.798;44.756;2023-08-24T02:41:54;100989.72;;;19.70;62.02
75668;BME280;64266;48.798;44.756;2023-08-24T02:46:57;100987.25;;;19.78;62.20
75668;BME280;64266;48.798;44.756;2023-08-24T02:51:59;100993.19;;;19.75;62.26
75668;BME280;64266;48.798;44.756;2023-08-24T02:57:02;100984.84;;;19.82;62.22
75668;BME280;64266;48.798;44.756;2023-08-24T03:02:05;101001.25;;;19.85;62.18
75668;BME280;64266;48.798;44.756;2023-08-24T03:07:08;100998.81;;;19.89;62.13
75668;BME280;64266;48.798;44.756;2023-08-24T03:12:13;101008.75;;;19.93;61.90
75668;BME280;64266;48.798;44.756;2023-08-24T03:17:17;101005.25;;;19.98;61.67
75668;BME280;64266;48.798;44.756;2023-08-24T03:22:20;101009.03;;;20.02;61.03
75668;BME280;64266;48.798;44.756;2023-08-24T03:27:23;101010.06;;;20.06;61.45
75668;BME280;64266;48.798;44.756;2023-08-24T03:32:26;101020.03;;;20.11;60.95
75668;BME280;64266;48.798;44.756;2023-08-24T03:37:31;101004.94;;;20.20;60.71
75668;BME280;64266;48.798;44.756;2023-08-24T03:42:33;101014.63;;;20.26;59.91
75668;BME280;64266;48.798;44.756;2023-08-24T03:47:36;101008.16;;;20.32;58.90
75668;BME280;64266;48.798;44.756;2023-08-24T03:52:39;101012.09;;;20.54;58.89
75668;BME280;64266;48.798;44.756;2023-08-24T03:57:43;101009.38;;;21.08;57.17
75668;BME280;64266;48.798;44.756;2023-08-24T04:02:46;101017.66;;;21.80;55.04
75668;BME280;64266;48.798;44.756;2023-08-24T04:07:58;101010.22;;;22.43;53.00
75668;BME280;64266;48.798;44.756;2023-08-24T04:13:03;101017.38;;;23.13;51.82
75668;BME280;64266;48.798;44.756;2023-08-24T04:18:05;101007.47;;;23.87;49.21
75668;BME280;64266;48.798;44.756;2023-08-24T04:23:09;101019.31;;;24.59;47.64
75668;BME280;64266;48.798;44.756;2023-08-24T04:28:12;101022.28;;;25.21;45.69
75668;BME280;64266;48.798;44.756;2023-08-24T04:33:15;101021.94;;;25.89;43.60
75668;BME280;64266;48.798;44.756;2023-08-24T04:38:18;101029.72;;;26.61;41.91
75668;BME280;64266;48.798;44.756;2023-08-24T04:43:24;101012.13;;;26.92;40.55
75668;BME280;64266;48.798;44.756;2023-08-24T04:48:27;101012.06;;;27.70;39.78
75668;BME280;64266;48.798;44.756;2023-08-24T04:53:30;101028.09;;;28.18;38.35
75668;BME280;64266;48.798;44.756;2023-08-24T04:58:33;101027.47;;;28.71;37.27
75668;BME280;64266;48.798;44.756;2023-08-24T05:03:36;101019.34;;;29.24;35.59
75668;BME280;64266;48.798;44.756;2023-08-24T05:08:40;101030.91;;;29.75;34.79
75668;BME280;64266;48.798;44.756;2023-08-24T05:13:43;101022.41;;;30.00;34.68
75668;BME280;64266;48.798;44.756;2023-08-24T05:18:46;101032.66;;;30.40;33.40
75668;BME280;64266;48.798;44.756;2023-08-24T05:23:49;101021.59;;;30.36;33.33
75668;BME280;64266;48.798;44.756;2023-08-24T05:28:52;101039.34;;;30.79;32.89
75668;BME280;64266;48.798;44.756;2023-08-24T05:33:55;101034.06;;;30.98;32.15
75668;BME280;64266;48.798;44.756;2023-08-24T05:38:58;101025.56;;;31.15;31.81
75668;BME280;64266;48.798;44.756;2023-08-24T05:44:07;101019.63;;;31.13;30.76
75668;BME280;64266;48.798;44.756;2023-08-24T05:49:10;101024.69;;;31.27;31.21
75668;BME280;64266;48.798;44.756;2023-08-24T05:54:14;101018.81;;;31.40;30.67
75668;BME280;64266;48.798;44.756;2023-08-24T05:59:22;101015.16;;;31.36;29.51
75668;BME280;64266;48.798;44.756;2023-08-24T06:04:25;101014.88;;;31.26;30.39
75668;BME280;64266;48.798;44.756;2023-08-24T06:09:27;101021.78;;;31.35;31.05
75668;BME280;64266;48.798;44.756;2023-08-24T06:14:31;101007.34;;;31.66;30.12
75668;BME280;64266;48.798;44.756;2023-08-24T06:19:35;101006.63;;;31.53;29.31
75668;BME280;64266;48.798;44.756;2023-08-24T06:24:37;101000.44;;;31.56;30.08
75668;BME280;64266;48.798;44.756;2023-08-24T06:29:43;100998.13;;;31.43;29.47
75668;BME280;64266;48.798;44.756;2023-08-24T06:34:46;101015.97;;;31.96;28.71
75668;BME280;64266;48.798;44.756;2023-08-24T06:39:50;101014.38;;;31.95;28.28
75668;BME280;64266;48.798;44.756;2023-08-24T06:44:53;101015.91;;;32.08;28.92
75668;BME280;64266;48.798;44.756;2023-08-24T06:49:56;101028.97;;;31.99;28.11
75668;BME280;64266;48.798;44.756;2023-08-24T06:54:59;101011.28;;;31.81;28.89
75668;BME280;64266;48.798;44.756;2023-08-24T07:00:05;101013.50;;;32.06;27.65
75668;BME280;64266;48.798;44.756;2023-08-24T07:05:10;101021.28;;;32.04;27.76
75668;BME280;64266;48.798;44.756;2023-08-24T07:10:15;101009.94;;;32.06;28.17
75668;BME280;64266;48.798;44.756;2023-08-24T07:15:18;101023.25;;;32.04;27.60
75668;BME280;64266;48.798;44.756;2023-08-24T07:20:21;101024.28;;;31.99;26.94
75668;BME280;64266;48.798;44.756;2023-08-24T07:25:25;101016.78;;;31.81;27.68
75668;BME280;64266;48.798;44.756;2023-08-24T07:30:31;101011.97;;;31.62;28.25
75668;BME280;64266;48.798;44.756;2023-08-24T07:35:37;101021.78;;;31.35;28.72
75668;BME280;64266;48.798;44.756;2023-08-24T07:40:41;100992.91;;;30.82;28.68
75668;BME280;64266;48.798;44.756;2023-08-24T07:45:44;101009.88;;;30.48;29.26
75668;BME280;64266;48.798;44.756;2023-08-24T07:50:48;101001.31;;;30.01;29.54
75668;BME280;64266;48.798;44.756;2023-08-24T07:55:53;100998.81;;;29.96;29.73
75668;BME280;64266;48.798;44.756;2023-08-24T08:00:58;100996.72;;;29.81;29.99
75668;BME280;64266;48.798;44.756;2023-08-24T08:06:03;100986.66;;;29.61;30.01
75668;BME280;64266;48.798;44.756;2023-08-24T08:11:10;101002.09;;;29.44;30.29
75668;BME280;64266;48.798;44.756;2023-08-24T08:16:18;100977.19;;;29.13;30.55
75668;BME280;64266;48.798;44.756;2023-08-24T08:21:22;100979.66;;;29.06;31.53
75668;BME280;64266;48.798;44.756;2023-08-24T08:26:26;100987.06;;;28.85;30.71
75668;BME280;64266;48.798;44.756;2023-08-24T08:31:31;100984.13;;;28.90;31.61
75668;BME280;64266;48.798;44.756;2023-08-24T08:36:38;100991.72;;;28.64;31.30
75668;BME280;64266;48.798;44.756;2023-08-24T08:41:45;100985.03;;;28.52;31.95
75668;BME280;64266;48.798;44.756;2023-08-24T08:46:52;100986.22;;;28.43;30.94
75668;BME280;64266;48.798;44.756;2023-08-24T08:51:56;100978.09;;;28.34;30.75
75668;BME280;64266;48.798;44.756;2023-08-24T08:57:01;100979.97;;;28.42;30.42
75668;BME280;64266;48.798;44.756;2023-08-24T09:02:13;100962.06;;;28.33;31.02
75668;BME280;64266;48.798;44.756;2023-08-24T09:07:18;100966.72;;;28.32;30.20
75668;BME280;64266;48.798;44.756;2023-08-24T09:12:23;100964.91;;;28.36;30.34
75668;BME280;64266;48.798;44.756;2023-08-24T09:17:27;100962.19;;;28.36;30.28
75668;BME280;64266;48.798;44.756;2023-08-24T09:22:35;100969.25;;;28.37;30.62
75668;BME280;64266;48.798;44.756;2023-08-24T09:27:41;100966.50;;;28.37;29.47
75668;BME280;64266;48.798;44.756;2023-08-24T09:32:46;100962.09;;;28.24;29.38
75668;BME280;64266;48.798;44.756;2023-08-24T09:37:49;100960.00;;;28.30;30.13
75668;BME280;64266;48.798;44.756;2023-08-24T09:42:53;100956.47;;;28.29;30.36
75668;BME280;64266;48.798;44.756;2023-08-24T09:47:56;100971.97;;;28.37;29.66
75668;BME280;64266;48.798;44.756;2023-08-24T09:53:02;100970.78;;;28.26;29.82
75668;BME280;64266;48.798;44.756;2023-08-24T09:58:09;100973.00;;;28.24;29.88
75668;BME280;64266;48.798;44.756;2023-08-24T10:03:16;100983.94;;;28.24;30.26
75668;BME280;64266;48.798;44.756;2023-08-24T10:08:29;100972.09;;;28.20;30.85
75668;BME280;64266;48.798;44.756;2023-08-24T10:13:53;100963.06;;;28.28;29.55
75668;BME280;64266;48.798;44.756;2023-08-24T10:18:59;100968.13;;;28.38;30.11
75668;BME280;64266;48.798;44.756;2023-08-24T10:24:05;100978.66;;;28.48;29.75
75668;BME280;64266;48.798;44.756;2023-08-24T10:29:10;100959.25;;;28.21;28.60
75668;BME280;64266;48.798;44.756;2023-08-24T10:34:14;100948.88;;;28.14;29.36
75668;BME280;64266;48.798;44.756;2023-08-24T10:39:27;100953.53;;;28.34;29.61
75668;BME280;64266;48.798;44.756;2023-08-24T10:44:35;100968.00;;;28.56;29.22
75668;BME280;64266;48.798;44.756;2023-08-24T10:49:38;100957.28;;;28.50;29.73
75668;BME280;64266;48.798;44.756;2023-08-24T10:54:42;100943.88;;;28.37;29.26
75668;BME280;64266;48.798;44.756;2023-08-24T11:00:08;100951.63;;;28.35;29.50
75668;BME280;64266;48.798;44.756;2023-08-24T11:05:21;100959.00;;;28.34;29.17
75668;BME280;64266;48.798;44.756;2023-08-24T11:15:47;100945.88;;;28.28;29.28
75668;BME280;64266;48.798;44.756;2023-08-24T11:21:01;100943.09;;;28.36;28.05
75668;BME280;64266;48.798;44.756;2023-08-24T11:26:08;100934.72;;;28.41;28.57
75668;BME280;64266;48.798;44.756;2023-08-24T11:31:11;100927.38;;;28.33;28.39
75668;BME280;64266;48.798;44.756;2023-08-24T11:36:15;100934.88;;;28.16;28.73
75668;BME280;64266;48.798;44.756;2023-08-24T11:41:18;100913.91;;;27.78;29.42
75668;BME280;64266;48.798;44.756;2023-08-24T11:46:22;100917.75;;;27.77;28.27
75668;BME280;64266;48.798;44.756;2023-08-24T11:51:25;100902.03;;;27.83;28.72
75668;BME280;64266;48.798;44.756;2023-08-24T11:56:44;100897.47;;;27.95;28.16
75668;BME280;64266;48.798;44.756;2023-08-24T12:01:49;100897.84;;;28.15;27.75
75668;BME280;64266;48.798;44.756;2023-08-24T12:06:54;100864.25;;;27.93;28.34
75668;BME280;64266;48.798;44.756;2023-08-24T12:11:57;100899.44;;;28.16;29.09
75668;BME280;64266;48.798;44.756;2023-08-24T12:17:06;100907.63;;;28.16;27.53
75668;BME280;64266;48.798;44.756;2023-08-24T12:22:15;100900.09;;;28.13;27.97
75668;BME280;64266;48.798;44.756;2023-08-24T12:27:20;100905.69;;;28.16;27.43
75668;BME280;64266;48.798;44.756;2023-08-24T12:32:25;100906.25;;;28.01;27.81
75668;BME280;64266;48.798;44.756;2023-08-24T12:37:35;100894.97;;;27.82;26.90
75668;BME280;64266;48.798;44.756;2023-08-24T12:42:38;100900.41;;;27.82;27.92
75668;BME280;64266;48.798;44.756;2023-08-24T12:47:40;100892.91;;;27.79;28.05
75668;BME280;64266;48.798;44.756;2023-08-24T12:52:44;100894.34;;;27.76;29.09
75668;BME280;64266;48.798;44.756;2023-08-24T12:57:46;100905.56;;;27.75;28.68
75668;BME280;64266;48.798;44.756;2023-08-24T13:02:50;100898.91;;;27.64;28.75
75668;BME280;64266;48.798;44.756;2023-08-24T13:07:54;100902.97;;;27.49;29.32
75668;BME280;64266;48.798;44.756;2023-08-24T13:12:57;100928.16;;;27.46;29.79
75668;BME280;64266;48.798;44.756;2023-08-24T13:18:01;100899.19;;;27.24;28.99
75668;BME280;64266;48.798;44.756;2023-08-24T13:23:04;100909.47;;;27.19;29.42
75668;BME280;64266;48.798;44.756;2023-08-24T13:28:08;100931.00;;;27.41;29.96
75668;BME280;64266;48.798;44.756;2023-08-24T13:33:11;100931.81;;;27.41;29.94
75668;BME280;64266;48.798;44.756;2023-08-24T13:38:15;100916.97;;;27.30;29.82
75668;BME280;64266;48.798;44.756;2023-08-24T13:43:18;100911.88;;;27.12;29.87
75668;BME280;64266;48.798;44.756;2023-08-24T13:48:23;100924.69;;;27.11;29.70
75668;BME280;64266;48.798;44.756;2023-08-24T13:53:27;100878.63;;;26.72;30.49
75668;BME280;64266;48.798;44.756;2023-08-24T13:58:30;100923.13;;;26.93;30.16
75668;BME280;64266;48.798;44.756;2023-08-24T14:03:32;100923.59;;;26.78;29.76
75668;BME280;64266;48.798;44.756;2023-08-24T14:08:35;100945.03;;;26.79;30.30
75668;BME280;64266;48.798;44.756;2023-08-24T14:13:38;100925.97;;;26.71;30.25
75668;BME280;64266;48.798;44.756;2023-08-24T14:18:40;100940.69;;;26.61;30.21
75668;BME280;64266;48.798;44.756;2023-08-24T14:23:43;100932.53;;;26.53;30.38
75668;BME280;64266;48.798;44.756;2023-08-24T14:28:53;100958.78;;;26.40;31.27
75668;BME280;64266;48.798;44.756;2023-08-24T14:33:59;100946.44;;;26.25;31.25
75668;BME280;64266;48.798;44.756;2023-08-24T14:39:02;100928.94;;;26.09;31.15
75668;BME280;64266;48.798;44.756;2023-08-24T14:44:04;100933.72;;;26.04;31.41
75668;BME280;64266;48.798;44.756;2023-08-24T14:49:08;100949.56;;;26.02;31.49
75668;BME280;64266;48.798;44.756;2023-08-24T14:54:11;100952.28;;;26.02;31.72
75668;BME280;64266;48.798;44.756;2023-08-24T14:59:16;100955.13;;;25.97;32.05
75668;BME280;64266;48.798;44.756;2023-08-24T15:04:19;100958.63;;;25.88;32.00
75668;BME280;64266;48.798;44.756;2023-08-24T15:09:21;100965.78;;;25.84;33.01
75668;BME280;64266;48.798;44.756;2023-08-24T15:14:30;100959.34;;;25.72;33.33
75668;BME280;64266;48.798;44.756;2023-08-24T15:19:34;100933.38;;;25.49;33.73
75668;BME280;64266;48.798;44.756;2023-08-24T15:24:38;100962.47;;;25.57;33.63
75668;BME280;64266;48.798;44.756;2023-08-24T15:29:42;100970.75;;;25.52;33.83
75668;BME280;64266;48.798;44.756;2023-08-24T15:34:46;100955.66;;;25.37;33.55
75668;BME280;64266;48.798;44.756;2023-08-24T15:39:50;100971.75;;;25.33;33.75
75668;BME280;64266;48.798;44.756;2023-08-24T15:44:53;100959.66;;;25.17;34.20
75668;BME280;64266;48.798;44.756;2023-08-24T15:49:56;100969.84;;;25.12;34.13
75668;BME280;64266;48.798;44.756;2023-08-24T15:54:59;100977.41;;;25.01;34.05
75668;BME280;64266;48.798;44.756;2023-08-24T16:00:03;100960.13;;;24.89;33.73
75668;BME280;64266;48.798;44.756;2023-08-24T16:05:13;100987.41;;;24.92;34.81
75668;BME280;64266;48.798;44.756;2023-08-24T16:10:17;100980.72;;;24.76;35.64
75668;BME280;64266;48.798;44.756;2023-08-24T16:15:20;100977.00;;;24.72;35.49
75668;BME280;64266;48.798;44.756;2023-08-24T16:20:23;100994.19;;;24.67;36.08
75668;BME280;64266;48.798;44.756;2023-08-24T16:25:26;100999.25;;;24.60;36.57
75668;BME280;64266;48.798;44.756;2023-08-24T16:30:28;101007.28;;;24.52;36.87
75668;BME280;64266;48.798;44.756;2023-08-24T16:35:31;101015.53;;;24.47;36.68
75668;BME280;64266;48.798;44.756;2023-08-24T16:40:34;101013.63;;;24.34;36.99
75668;BME280;64266;48.798;44.756;2023-08-24T16:45:38;101023.38;;;24.21;38.23
75668;BME280;64266;48.798;44.756;2023-08-24T16:50:44;101021.25;;;24.04;37.86
75668;BME280;64266;48.798;44.756;2023-08-24T16:55:49;101030.84;;;23.97;38.31
75668;BME280;64266;48.798;44.756;2023-08-24T17:00:53;101013.69;;;23.74;38.85
75668;BME280;64266;48.798;44.756;2023-08-24T17:05:56;101043.88;;;23.81;39.47
75668;BME280;64266;48.798;44.756;2023-08-24T17:10:58;101033.13;;;23.62;40.07
75668;BME280;64266;48.798;44.756;2023-08-24T17:16:01;101038.91;;;23.56;39.85
75668;BME280;64266;48.798;44.756;2023-08-24T17:21:04;101038.50;;;23.49;40.05
75668;BME280;64266;48.798;44.756;2023-08-24T17:26:06;101052.84;;;23.49;39.60
75668;BME280;64266;48.798;44.756;2023-08-24T17:31:09;101038.38;;;23.40;39.87
75668;BME280;64266;48.798;44.756;2023-08-24T17:36:11;101032.00;;;23.31;39.62
75668;BME280;64266;48.798;44.756;2023-08-24T17:41:14;101023.81;;;23.17;39.82
75668;BME280;64266;48.798;44.756;2023-08-24T17:46:16;101044.81;;;23.26;39.76
75668;BME280;64266;48.798;44.756;2023-08-24T17:51:19;101030.13;;;23.13;39.61
75668;BME280;64266;48.798;44.756;2023-08-24T17:56:21;101047.66;;;23.15;39.84
75668;BME280;64266;48.798;44.756;2023-08-24T18:01:24;101049.41;;;23.06;39.66
75668;BME280;64266;48.798;44.756;2023-08-24T18:06:27;101056.94;;;23.09;40.03
75668;BME280;64266;48.798;44.756;2023-08-24T18:11:30;101058.94;;;23.04;40.48
75668;BME280;64266;48.798;44.756;2023-08-24T18:16:33;101050.38;;;22.97;40.83
75668;BME280;64266;48.798;44.756;2023-08-24T18:21:35;101063.66;;;22.93;41.80
75668;BME280;64266;48.798;44.756;2023-08-24T18:26:39;101059.06;;;22.94;41.06
75668;BME280;64266;48.798;44.756;2023-08-24T18:31:41;101067.19;;;22.94;41.29
75668;BME280;64266;48.798;44.756;2023-08-24T18:36:44;101074.25;;;22.90;41.76
75668;BME280;64266;48.798;44.756;2023-08-24T18:41:46;101054.44;;;22.76;41.71
75668;BME280;64266;48.798;44.756;2023-08-24T18:46:50;101056.13;;;22.72;41.90
75668;BME280;64266;48.798;44.756;2023-08-24T18:51:54;101063.00;;;22.59;42.44
75668;BME280;64266;48.798;44.756;2023-08-24T18:56:56;101070.59;;;22.57;41.68
75668;BME280;64266;48.798;44.756;2023-08-24T19:02:01;101072.25;;;22.53;42.16
75668;BME280;64266;48.798;44.756;2023-08-24T19:07:05;101071.81;;;22.46;42.04
75668;BME280;64266;48.798;44.756;2023-08-24T19:12:07;101075.97;;;22.38;42.26
75668;BME280;64266;48.798;44.756;2023-08-24T19:17:10;101056.91;;;22.25;42.36
75668;BME280;64266;48.798;44.756;2023-08-24T19:22:12;101065.56;;;22.27;42.27
75668;BME280;64266;48.798;44.756;2023-08-24T19:27:15;101053.13;;;22.26;43.67
75668;BME280;64266;48.798;44.756;2023-08-24T19:32:17;101046.75;;;22.17;43.74
75668;BME280;64266;48.798;44.756;2023-08-24T19:37:19;101028.75;;;22.07;43.50
75668;BME280;64266;48.798;44.756;2023-08-24T19:42:22;101042.97;;;22.18;44.00
75668;BME280;64266;48.798;44.756;2023-08-24T19:47:26;101048.38;;;22.18;44.32
75668;BME280;64266;48.798;44.756;2023-08-24T19:52:30;101051.69;;;22.09;44.82
75668;BME280;64266;48.798;44.756;2023-08-24T19:57:32;101041.78;;;22.00;45.22
75668;BME280;64266;48.798;44.756;2023-08-24T20:02:35;101021.19;;;21.80;45.77
75668;BME280;64266;48.798;44.756;2023-08-24T20:07:38;101043.03;;;21.84;46.12
75668;BME280;64266;48.798;44.756;2023-08-24T20:12:42;101047.88;;;21.82;46.60
75668;BME280;64266;48.798;44.756;2023-08-24T20:17:47;101045.00;;;21.73;46.90
75668;BME280;64266;48.798;44.756;2023-08-24T20:22:50;101038.09;;;21.62;47.30
75668;BME280;64266;48.798;44.756;2023-08-24T20:27:58;101036.97;;;21.63;47.77
75668;BME280;64266;48.798;44.756;2023-08-24T20:33:00;101040.81;;;21.57;48.43
75668;BME280;64266;48.798;44.756;2023-08-24T20:38:03;101019.47;;;21.32;48.53
75668;BME280;64266;48.798;44.756;2023-08-24T20:43:05;101047.34;;;21.51;48.86
75668;BME280;64266;48.798;44.756;2023-08-24T20:48:08;101031.00;;;21.37;49.36
75668;BME280;64266;48.798;44.756;2023-08-24T20:53:13;101036.97;;;21.34;49.77
75668;BME280;64266;48.798;44.756;2023-08-24T20:58:16;101032.13;;;21.31;49.83
75668;BME280;64266;48.798;44.756;2023-08-24T21:03:18;101019.78;;;21.20;50.02
75668;BME280;64266;48.798;44.756;2023-08-24T21:08:21;101022.22;;;21.22;49.35
75668;BME280;64266;48.798;44.756;2023-08-24T21:13:23;101022.78;;;21.19;49.59
75668;BME280;64266;48.798;44.756;2023-08-24T21:18:26;101023.91;;;21.13;49.68
75668;BME280;64266;48.798;44.756;2023-08-24T21:23:28;101016.97;;;20.96;49.95
75668;BME280;64266;48.798;44.756;2023-08-24T21:28:31;100984.53;;;20.68;50.80
75668;BME280;64266;48.798;44.756;2023-08-24T21:33:33;101016.50;;;20.84;50.52
75668;BME280;64266;48.798;44.756;2023-08-24T21:38:35;101015.44;;;20.80;50.81
75668;BME280;64266;48.798;44.756;2023-08-24T21:43:38;101007.41;;;20.75;50.65
75668;BME280;64266;48.798;44.756;2023-08-24T21:48:40;101002.06;;;20.70;49.94
75668;BME280;64266;48.798;44.756;2023-08-24T21:53:43;100985.69;;;20.57;50.99
75668;BME280;64266;48.798;44.756;2023-08-24T21:58:46;100999.38;;;20.65;50.80
75668;BME280;64266;48.798;44.756;2023-08-24T22:03:48;101009.34;;;20.65;51.26
75668;BME280;64266;48.798;44.756;2023-08-24T22:08:51;101004.78;;;20.60;51.07
75668;BME280;64266;48.798;44.756;2023-08-24T22:13:54;100999.44;;;20.50;51.86
75668;BME280;64266;48.798;44.756;2023-08-24T22:18:57;101016.13;;;20.57;51.09
75668;BME280;64266;48.798;44.756;2023-08-24T22:24:01;101012.13;;;20.44;51.13
75668;BME280;64266;48.798;44.756;2023-08-24T22:29:05;101012.91;;;20.50;51.14
75668;BME280;64266;48.798;44.756;2023-08-24T22:34:09;101008.38;;;20.45;50.02
75668;BME280;64266;48.798;44.756;2023-08-24T22:39:12;100997.34;;;20.42;49.86
75668;BME280;64266;48.798;44.756;2023-08-24T22:44:15;100994.09;;;20.40;49.75
75668;BME280;64266;48.798;44.756;2023-08-24T22:49:17;101014.56;;;20.41;49.22
75668;BME280;64266;48.798;44.756;2023-08-24T22:54:20;101018.34;;;20.45;49.81
75668;BME280;64266;48.798;44.756;2023-08-24T22:59:23;101014.88;;;20.34;49.10
75668;BME280;64266;48.798;44.756;2023-08-24T23:04:26;101003.03;;;20.25;49.68
75668;BME280;64266;48.798;44.756;2023-08-24T23:09:30;101028.88;;;20.31;49.35
75668;BME280;64266;48.798;44.756;2023-08-24T23:14:35;101015.69;;;20.25;50.18
75668;BME280;64266;48.798;44.756;2023-08-24T23:19:39;101021.66;;;20.27;50.93
75668;BME280;64266;48.798;44.756;2023-08-24T23:24:42;101012.19;;;20.19;51.44
75668;BME280;64266;48.798;44.756;2023-08-24T23:29:53;101022.41;;;20.22;51.69
75668;BME280;64266;48.798;44.756;2023-08-24T23:34:59;101007.63;;;20.20;51.61
75668;BME280;64266;48.798;44.756;2023-08-24T23:40:04;101010.28;;;20.25;51.55
75668;BME280;64266;48.798;44.756;2023-08-24T23:45:09;101016.78;;;20.24;51.64
75668;BME280;64266;48.798;44.756;2023-08-24T23:50:12;101002.28;;;20.15;50.80
75668;BME280;64266;48.798;44.756;2023-08-24T23:55:15;101027.03;;;20.17;50.78
